sensor_id;sensor_type;location;lat;lon;timestamp;pressure;altitude;pressure_sealevel;temperature;humidity
58622;BME280;44389;51.578;5.456;2023-04-06T00:00:02;101714.63;;;0.71;92.66
58622;BME280;44389;51.578;5.456;2023-04-06T00:02:29;101713.88;;;0.72;92.47
58622;BME280;44389;51.578;5.456;2023-04-06T00:04:54;101712.06;;;0.71;92.67
58622;BME280;44389;51.578;5.456;2023-04-06T00:07:20;101704.97;;;0.56;92.65
58622;BME280;44389;51.578;5.456;2023-04-06T00:09:46;101711.81;;;0.57;93.55
58622;BME280;44389;51.578;5.456;2023-04-06T00:12:12;101707.50;;;0.56;93.05
58622;BME280;44389;51.578;5.456;2023-04-06T00:14:37;101705.22;;;0.49;93.70
58622;BME280;44389;51.578;5.456;2023-04-06T00:17:02;101705.97;;;0.38;94.40
58622;BME280;44389;51.578;5.456;2023-04-06T00:19:27;101708.91;;;0.53;92.79
58622;BME280;44389;51.578;5.456;2023-04-06T00:21:53;101704.22;;;0.57;91.19
58622;BME280;44389;51.578;5.456;2023-04-06T00:24:18;101701.81;;;0.69;91.12
58622;BME280;44389;51.578;5.456;2023-04-06T00:26:43;101700.31;;;0.71;90.49
58622;BME280;44389;51.578;5.456;2023-04-06T00:29:09;101697.75;;;0.71;90.00
58622;BME280;44389;51.578;5.456;2023-04-06T00:31:34;101691.66;;;0.79;88.76
58622;BME280;44389;51.578;5.456;2023-04-06T00:33:59;101686.59;;;0.69;89.82
58622;BME280;44389;51.578;5.456;2023-04-06T00:36:25;101679.72;;;0.68;89.10
58622;BME280;44389;51.578;5.456;2023-04-06T00:38:50;101681.63;;;0.71;89.30
58622;BME280;44389;51.578;5.456;2023-04-06T00:41:17;101680.75;;;0.70;91.51
58622;BME280;44389;51.578;5.456;2023-04-06T00:43:43;101672.13;;;0.68;91.05
58622;BME280;44389;51.578;5.456;2023-04-06T00:46:08;101665.13;;;0.96;86.94
58622;BME280;44389;51.578;5.456;2023-04-06T00:48:33;101670.16;;;1.17;84.19
58622;BME280;44389;51.578;5.456;2023-04-06T00:50:58;101666.22;;;1.21;85.46
58622;BME280;44389;51.578;5.456;2023-04-06T00:53:24;101669.63;;;1.31;84.40
58622;BME280;44389;51.578;5.456;2023-04-06T00:55:49;101663.25;;;1.37;81.83
58622;BME280;44389;51.578;5.456;2023-04-06T00:58:15;101663.59;;;1.52;81.05
58622;BME280;44389;51.578;5.456;2023-04-06T01:00:41;101657.34;;;1.58;80.58
58622;BME280;44389;51.578;5.456;2023-04-06T01:03:07;101655.81;;;1.60;79.99
58622;BME280;44389;51.578;5.456;2023-04-06T01:05:34;101652.03;;;1.55;80.83
58622;BME280;44389;51.578;5.456;2023-04-06T01:08:00;101648.31;;;1.62;80.32
58622;BME280;44389;51.578;5.456;2023-04-06T01:10:27;101645.72;;;1.72;78.96
58622;BME280;44389;51.578;5.456;2023-04-06T01:12:52;101639.22;;;1.76;79.25
58622;BME280;44389;51.578;5.456;2023-04-06T01:15:19;101652.00;;;1.66;79.54
58622;BME280;44389;51.578;5.456;2023-04-06T01:17:44;101646.84;;;1.54;80.22
58622;BME280;44389;51.578;5.456;2023-04-06T01:20:10;101642.09;;;1.58;79.57
58622;BME280;44389;51.578;5.456;2023-04-06T01:22:35;101637.28;;;1.61;80.47
58622;BME280;44389;51.578;5.456;2023-04-06T01:25:00;101646.19;;;1.56;81.37
58622;BME280;44389;51.578;5.456;2023-04-06T01:27:26;101637.31;;;1.51;81.12
58622;BME280;44389;51.578;5.456;2023-04-06T01:29:53;101634.19;;;1.43;82.36
58622;BME280;44389;51.578;5.456;2023-04-06T01:32:18;101628.03;;;1.52;83.93
58622;BME280;44389;51.578;5.456;2023-04-06T01:34:43;101632.25;;;1.51;80.93
58622;BME280;44389;51.578;5.456;2023-04-06T01:37:08;101631.97;;;1.48;84.93
58622;BME280;44389;51.578;5.456;2023-04-06T01:39:34;101623.59;;;1.49;81.51
58622;BME280;44389;51.578;5.456;2023-04-06T01:41:59;101629.97;;;1.44;80.41
58622;BME280;44389;51.578;5.456;2023-04-06T01:44:25;101623.38;;;1.46;79.99
58622;BME280;44389;51.578;5.456;2023-04-06T01:46:50;101625.53;;;1.41;80.09
58622;BME280;44389;51.578;5.456;2023-04-06T01:49:15;101614.72;;;1.44;81.19
58622;BME280;44389;51.578;5.456;2023-04-06T01:51:41;101622.56;;;1.47;80.66
58622;BME280;44389;51.578;5.456;2023-04-06T01:54:06;101613.22;;;1.46;81.39
58622;BME280;44389;51.578;5.456;2023-04-06T01:56:31;101604.03;;;1.48;85.10
58622;BME280;44389;51.578;5.456;2023-04-06T01:58:56;101607.72;;;1.52;84.14
58622;BME280;44389;51.578;5.456;2023-04-06T02:01:22;101598.19;;;1.49;85.67
58622;BME280;44389;51.578;5.456;2023-04-06T02:03:47;101597.78;;;1.55;83.53
58622;BME280;44389;51.578;5.456;2023-04-06T02:06:12;101594.53;;;1.68;82.01
58622;BME280;44389;51.578;5.456;2023-04-06T02:08:38;101592.78;;;1.67;81.25
58622;BME280;44389;51.578;5.456;2023-04-06T02:11:03;101589.16;;;1.75;81.03
58622;BME280;44389;51.578;5.456;2023-04-06T02:13:28;101588.09;;;1.83;80.18
58622;BME280;44389;51.578;5.456;2023-04-06T02:15:54;101577.63;;;1.90;79.70
58622;BME280;44389;51.578;5.456;2023-04-06T02:18:20;101579.63;;;1.94;79.51
58622;BME280;44389;51.578;5.456;2023-04-06T02:20:45;101573.91;;;1.97;79.58
58622;BME280;44389;51.578;5.456;2023-04-06T02:23:11;101579.50;;;2.15;79.40
58622;BME280;44389;51.578;5.456;2023-04-06T02:25:36;101572.63;;;2.14;79.16
58622;BME280;44389;51.578;5.456;2023-04-06T02:28:02;101576.41;;;2.19;79.03
58622;BME280;44389;51.578;5.456;2023-04-06T02:30:27;101564.25;;;2.27;77.81
58622;BME280;44389;51.578;5.456;2023-04-06T02:32:54;101568.94;;;2.33;78.70
58622;BME280;44389;51.578;5.456;2023-04-06T02:35:19;101567.06;;;2.42;78.59
58622;BME280;44389;51.578;5.456;2023-04-06T02:37:45;101563.41;;;2.50;77.97
58622;BME280;44389;51.578;5.456;2023-04-06T02:40:10;101565.19;;;2.51;78.04
58622;BME280;44389;51.578;5.456;2023-04-06T02:42:35;101564.66;;;2.55;77.60
58622;BME280;44389;51.578;5.456;2023-04-06T02:45:01;101555.78;;;2.62;77.08
58622;BME280;44389;51.578;5.456;2023-04-06T02:47:26;101547.75;;;2.68;77.01
58622;BME280;44389;51.578;5.456;2023-04-06T02:49:52;101548.72;;;2.70;76.52
58622;BME280;44389;51.578;5.456;2023-04-06T02:52:17;101555.03;;;2.75;76.94
58622;BME280;44389;51.578;5.456;2023-04-06T02:54:43;101548.28;;;2.75;76.75
58622;BME280;44389;51.578;5.456;2023-04-06T02:57:08;101541.31;;;2.73;76.86
58622;BME280;44389;51.578;5.456;2023-04-06T02:59:33;101544.31;;;2.79;76.85
58622;BME280;44389;51.578;5.456;2023-04-06T03:01:58;101537.34;;;2.76;76.83
58622;BME280;44389;51.578;5.456;2023-04-06T03:04:24;101533.78;;;2.74;77.94
58622;BME280;44389;51.578;5.456;2023-04-06T03:06:50;101537.09;;;2.73;77.74
58622;BME280;44389;51.578;5.456;2023-04-06T03:09:16;101533.69;;;2.73;77.76
58622;BME280;44389;51.578;5.456;2023-04-06T03:11:41;101533.78;;;2.74;78.48
58622;BME280;44389;51.578;5.456;2023-04-06T03:14:06;101532.69;;;2.71;80.05
58622;BME280;44389;51.578;5.456;2023-04-06T03:16:32;101534.34;;;2.70;78.39
58622;BME280;44389;51.578;5.456;2023-04-06T03:18:57;101536.22;;;2.73;79.74
58622;BME280;44389;51.578;5.456;2023-04-06T03:21:22;101532.47;;;2.68;80.78
58622;BME280;44389;51.578;5.456;2023-04-06T03:23:48;101531.25;;;2.62;81.08
58622;BME280;44389;51.578;5.456;2023-04-06T03:26:16;101534.00;;;2.66;80.28
58622;BME280;44389;51.578;5.456;2023-04-06T03:28:41;101518.41;;;2.61;80.21
58622;BME280;44389;51.578;5.456;2023-04-06T03:31:06;101522.03;;;2.64;79.76
58622;BME280;44389;51.578;5.456;2023-04-06T03:33:32;101518.72;;;2.66;80.69
58622;BME280;44389;51.578;5.456;2023-04-06T03:35:57;101520.50;;;2.67;80.10
58622;BME280;44389;51.578;5.456;2023-04-06T03:38:22;101517.97;;;2.67;81.10
58622;BME280;44389;51.578;5.456;2023-04-06T03:40:47;101515.41;;;2.67;80.16
58622;BME280;44389;51.578;5.456;2023-04-06T03:43:13;101516.44;;;2.69;80.36
58622;BME280;44389;51.578;5.456;2023-04-06T03:45:38;101519.63;;;2.66;80.39
58622;BME280;44389;51.578;5.456;2023-04-06T03:48:04;101515.88;;;2.61;81.43
58622;BME280;44389;51.578;5.456;2023-04-06T03:50:30;101516.75;;;2.50;80.67
58622;BME280;44389;51.578;5.456;2023-04-06T03:52:55;101517.63;;;2.50;84.00
58622;BME280;44389;51.578;5.456;2023-04-06T03:55:21;101509.66;;;2.45;83.17
58622;BME280;44389;51.578;5.456;2023-04-06T03:57:46;101508.97;;;2.36;83.61
58622;BME280;44389;51.578;5.456;2023-04-06T04:00:12;101508.75;;;2.33;84.71
58622;BME280;44389;51.578;5.456;2023-04-06T04:02:37;101515.53;;;2.33;84.47
58622;BME280;44389;51.578;5.456;2023-04-06T04:05:03;101515.81;;;2.25;83.79
58622;BME280;44389;51.578;5.456;2023-04-06T04:07:29;101513.84;;;2.21;83.39
58622;BME280;44389;51.578;5.456;2023-04-06T04:09:54;101517.34;;;2.23;83.76
58622;BME280;44389;51.578;5.456;2023-04-06T04:12:19;101518.25;;;2.24;83.84
58622;BME280;44389;51.578;5.456;2023-04-06T04:14:45;101515.63;;;2.22;83.74
58622;BME280;44389;51.578;5.456;2023-04-06T04:17:10;101511.41;;;2.23;83.62
58622;BME280;44389;51.578;5.456;2023-04-06T04:19:35;101509.41;;;2.19;83.79
58622;BME280;44389;51.578;5.456;2023-04-06T04:22:01;101510.81;;;2.15;83.68
58622;BME280;44389;51.578;5.456;2023-04-06T04:24:29;101512.28;;;2.23;83.11
58622;BME280;44389;51.578;5.456;2023-04-06T04:26:54;101508.50;;;2.18;83.43
58622;BME280;44389;51.578;5.456;2023-04-06T04:29:21;101507.19;;;2.23;83.72
58622;BME280;44389;51.578;5.456;2023-04-06T04:31:47;101506.41;;;2.24;83.00
58622;BME280;44389;51.578;5.456;2023-04-06T04:34:13;101509.41;;;2.30;82.70
58622;BME280;44389;51.578;5.456;2023-04-06T04:36:39;101516.84;;;2.27;84.73
58622;BME280;44389;51.578;5.456;2023-04-06T04:39:07;101511.84;;;2.29;83.56
58622;BME280;44389;51.578;5.456;2023-04-06T04:41:32;101507.44;;;2.26;83.13
58622;BME280;44389;51.578;5.456;2023-04-06T04:43:57;101506.78;;;2.29;82.87
58622;BME280;44389;51.578;5.456;2023-04-06T04:46:22;101498.38;;;2.30;82.95
58622;BME280;44389;51.578;5.456;2023-04-06T04:48:48;101499.44;;;2.34;82.90
58622;BME280;44389;51.578;5.456;2023-04-06T04:51:13;101501.22;;;2.35;84.54
58622;BME280;44389;51.578;5.456;2023-04-06T04:53:38;101499.59;;;2.35;84.71
58622;BME280;44389;51.578;5.456;2023-04-06T04:56:03;101501.69;;;2.41;83.37
58622;BME280;44389;51.578;5.456;2023-04-06T04:58:29;101497.38;;;2.40;83.61
58622;BME280;44389;51.578;5.456;2023-04-06T05:00:55;101493.41;;;2.43;83.11
58622;BME280;44389;51.578;5.456;2023-04-06T05:03:25;101497.94;;;2.47;84.08
58622;BME280;44389;51.578;5.456;2023-04-06T05:05:50;101498.28;;;2.52;82.85
58622;BME280;44389;51.578;5.456;2023-04-06T05:08:16;101498.59;;;2.57;82.49
58622;BME280;44389;51.578;5.456;2023-04-06T05:10:42;101498.16;;;2.62;81.80
58622;BME280;44389;51.578;5.456;2023-04-06T05:13:08;101500.81;;;2.64;81.94
58622;BME280;44389;51.578;5.456;2023-04-06T05:15:33;101505.03;;;2.63;82.00
58622;BME280;44389;51.578;5.456;2023-04-06T05:18:00;101498.63;;;2.69;81.69
58622;BME280;44389;51.578;5.456;2023-04-06T05:20:25;101497.94;;;2.71;81.78
58622;BME280;44389;51.578;5.456;2023-04-06T05:22:51;101497.50;;;2.77;80.98
58622;BME280;44389;51.578;5.456;2023-04-06T05:25:16;101498.59;;;2.80;81.33
58622;BME280;44389;51.578;5.456;2023-04-06T05:27:41;101498.69;;;2.82;81.17
58622;BME280;44389;51.578;5.456;2023-04-06T05:30:08;101504.91;;;2.86;80.43
58622;BME280;44389;51.578;5.456;2023-04-06T05:32:33;101501.59;;;2.87;80.22
58622;BME280;44389;51.578;5.456;2023-04-06T05:34:59;101495.03;;;2.90;81.11
58622;BME280;44389;51.578;5.456;2023-04-06T05:37:24;101490.16;;;2.93;80.17
58622;BME280;44389;51.578;5.456;2023-04-06T05:39:50;101489.41;;;2.94;79.92
58622;BME280;44389;51.578;5.456;2023-04-06T05:42:15;101491.38;;;2.99;80.17
58622;BME280;44389;51.578;5.456;2023-04-06T05:44:41;101489.94;;;3.02;79.47
58622;BME280;44389;51.578;5.456;2023-04-06T05:47:07;101487.50;;;3.04;79.04
58622;BME280;44389;51.578;5.456;2023-04-06T05:49:32;101488.59;;;3.07;78.92
58622;BME280;44389;51.578;5.456;2023-04-06T05:51:57;101480.41;;;3.11;78.51
58622;BME280;44389;51.578;5.456;2023-04-06T05:54:23;101487.47;;;3.16;77.89
58622;BME280;44389;51.578;5.456;2023-04-06T05:56:48;101487.81;;;3.20;77.94
58622;BME280;44389;51.578;5.456;2023-04-06T05:59:13;101487.22;;;3.24;77.18
58622;BME280;44389;51.578;5.456;2023-04-06T06:01:38;101491.84;;;3.30;77.58
58622;BME280;44389;51.578;5.456;2023-04-06T06:04:04;101492.28;;;3.36;77.47
58622;BME280;44389;51.578;5.456;2023-04-06T06:06:29;101486.63;;;3.40;76.39
58622;BME280;44389;51.578;5.456;2023-04-06T06:08:57;101490.25;;;3.44;76.33
58622;BME280;44389;51.578;5.456;2023-04-06T06:11:26;101483.81;;;3.49;76.57
58622;BME280;44389;51.578;5.456;2023-04-06T06:13:51;101486.56;;;3.52;76.35
58622;BME280;44389;51.578;5.456;2023-04-06T06:16:18;101485.22;;;3.57;76.59
58622;BME280;44389;51.578;5.456;2023-04-06T06:18:43;101497.72;;;3.66;76.12
58622;BME280;44389;51.578;5.456;2023-04-06T06:21:09;101504.09;;;3.73;75.88
58622;BME280;44389;51.578;5.456;2023-04-06T06:23:36;101494.13;;;3.76;75.25
58622;BME280;44389;51.578;5.456;2023-04-06T06:26:01;101492.88;;;3.83;74.57
58622;BME280;44389;51.578;5.456;2023-04-06T06:28:27;101490.94;;;3.92;74.97
58622;BME280;44389;51.578;5.456;2023-04-06T06:30:52;101488.72;;;3.97;74.83
58622;BME280;44389;51.578;5.456;2023-04-06T06:33:17;101488.63;;;4.08;74.28
58622;BME280;44389;51.578;5.456;2023-04-06T06:35:43;101496.97;;;4.19;73.67
58622;BME280;44389;51.578;5.456;2023-04-06T06:38:08;101498.47;;;4.29;73.80
58622;BME280;44389;51.578;5.456;2023-04-06T06:40:33;101499.56;;;4.33;74.11
58622;BME280;44389;51.578;5.456;2023-04-06T06:42:58;101498.38;;;4.41;73.50
58622;BME280;44389;51.578;5.456;2023-04-06T06:45:24;101498.78;;;4.47;72.69
58622;BME280;44389;51.578;5.456;2023-04-06T06:47:50;101498.28;;;4.53;72.55
58622;BME280;44389;51.578;5.456;2023-04-06T06:50:16;101493.09;;;4.51;72.12
58622;BME280;44389;51.578;5.456;2023-04-06T06:52:41;101495.84;;;4.54;71.55
58622;BME280;44389;51.578;5.456;2023-04-06T06:55:08;101492.72;;;4.58;72.33
58622;BME280;44389;51.578;5.456;2023-04-06T06:57:33;101491.34;;;4.64;71.99
58622;BME280;44389;51.578;5.456;2023-04-06T06:59:59;101490.75;;;4.68;72.51
58622;BME280;44389;51.578;5.456;2023-04-06T07:02:25;101479.06;;;4.71;72.34
58622;BME280;44389;51.578;5.456;2023-04-06T07:04:50;101480.34;;;4.78;72.52
58622;BME280;44389;51.578;5.456;2023-04-06T07:07:15;101490.94;;;4.84;71.72
58622;BME280;44389;51.578;5.456;2023-04-06T07:09:41;101488.56;;;4.87;70.83
58622;BME280;44389;51.578;5.456;2023-04-06T07:12:06;101484.63;;;4.92;70.92
58622;BME280;44389;51.578;5.456;2023-04-06T07:14:31;101481.47;;;4.97;71.26
58622;BME280;44389;51.578;5.456;2023-04-06T07:16:57;101479.91;;;4.99;70.26
58622;BME280;44389;51.578;5.456;2023-04-06T07:19:22;101473.69;;;5.08;69.85
58622;BME280;44389;51.578;5.456;2023-04-06T07:21:48;101471.25;;;5.10;69.98
58622;BME280;44389;51.578;5.456;2023-04-06T07:24:14;101470.81;;;5.17;69.78
58622;BME280;44389;51.578;5.456;2023-04-06T07:26:40;101466.78;;;5.21;70.16
58622;BME280;44389;51.578;5.456;2023-04-06T07:29:05;101467.88;;;5.24;69.51
58622;BME280;44389;51.578;5.456;2023-04-06T07:31:31;101470.69;;;5.29;68.91
58622;BME280;44389;51.578;5.456;2023-04-06T07:33:56;101473.53;;;5.34;68.36
58622;BME280;44389;51.578;5.456;2023-04-06T07:36:21;101470.38;;;5.38;68.48
58622;BME280;44389;51.578;5.456;2023-04-06T07:38:47;101468.88;;;5.41;67.72
58622;BME280;44389;51.578;5.456;2023-04-06T07:41:12;101475.16;;;5.47;67.45
58622;BME280;44389;51.578;5.456;2023-04-06T07:43:37;101467.03;;;5.54;68.64
58622;BME280;44389;51.578;5.456;2023-04-06T07:46:03;101468.31;;;5.60;66.54
58622;BME280;44389;51.578;5.456;2023-04-06T07:48:28;101460.13;;;5.66;66.47
58622;BME280;44389;51.578;5.456;2023-04-06T07:51:03;101467.25;;;5.72;67.14
58622;BME280;44389;51.578;5.456;2023-04-06T07:53:28;101468.78;;;5.83;66.21
58622;BME280;44389;51.578;5.456;2023-04-06T07:55:53;101456.91;;;5.84;65.85
58622;BME280;44389;51.578;5.456;2023-04-06T07:58:20;101473.66;;;5.93;65.93
58622;BME280;44389;51.578;5.456;2023-04-06T08:00:46;101472.28;;;5.99;65.43
58622;BME280;44389;51.578;5.456;2023-04-06T08:03:11;101468.13;;;6.01;66.13
58622;BME280;44389;51.578;5.456;2023-04-06T08:05:36;101464.97;;;6.05;65.76
58622;BME280;44389;51.578;5.456;2023-04-06T08:08:01;101468.31;;;6.04;65.24
58622;BME280;44389;51.578;5.456;2023-04-06T08:10:27;101477.75;;;6.05;64.30
58622;BME280;44389;51.578;5.456;2023-04-06T08:12:53;101474.94;;;6.15;65.18
58622;BME280;44389;51.578;5.456;2023-04-06T08:15:18;101471.75;;;6.19;63.37
58622;BME280;44389;51.578;5.456;2023-04-06T08:17:43;101470.09;;;6.20;64.62
58622;BME280;44389;51.578;5.456;2023-04-06T08:20:09;101473.88;;;6.26;64.22
58622;BME280;44389;51.578;5.456;2023-04-06T08:22:34;101474.25;;;6.33;64.27
58622;BME280;44389;51.578;5.456;2023-04-06T08:25:00;101469.44;;;6.39;64.29
58622;BME280;44389;51.578;5.456;2023-04-06T08:27:25;101474.75;;;6.42;63.80
58622;BME280;44389;51.578;5.456;2023-04-06T08:29:50;101478.44;;;6.47;64.39
58622;BME280;44389;51.578;5.456;2023-04-06T08:32:16;101472.53;;;6.48;63.89
58622;BME280;44389;51.578;5.456;2023-04-06T08:34:41;101477.75;;;6.50;64.42
58622;BME280;44389;51.578;5.456;2023-04-06T08:37:07;101483.53;;;6.62;64.93
58622;BME280;44389;51.578;5.456;2023-04-06T08:39:32;101474.81;;;6.58;64.20
58622;BME280;44389;51.578;5.456;2023-04-06T08:41:59;101472.56;;;6.65;64.60
58622;BME280;44389;51.578;5.456;2023-04-06T08:44:26;101479.97;;;6.75;65.72
58622;BME280;44389;51.578;5.456;2023-04-06T08:46:51;101487.38;;;6.85;64.32
58622;BME280;44389;51.578;5.456;2023-04-06T08:49:18;101485.56;;;6.99;64.31
58622;BME280;44389;51.578;5.456;2023-04-06T08:51:44;101474.44;;;6.99;64.81
58622;BME280;44389;51.578;5.456;2023-04-06T08:54:09;101483.19;;;7.02;64.40
58622;BME280;44389;51.578;5.456;2023-04-06T08:56:38;101482.00;;;7.12;64.43
58622;BME280;44389;51.578;5.456;2023-04-06T08:59:04;101483.03;;;7.16;64.90
58622;BME280;44389;51.578;5.456;2023-04-06T09:01:30;101477.38;;;7.38;65.49
58622;BME280;44389;51.578;5.456;2023-04-06T09:03:59;101486.75;;;7.37;64.48
58622;BME280;44389;51.578;5.456;2023-04-06T09:06:26;101485.72;;;7.50;64.88
58622;BME280;44389;51.578;5.456;2023-04-06T09:08:52;101482.97;;;7.47;64.41
58622;BME280;44389;51.578;5.456;2023-04-06T09:11:17;101482.66;;;7.57;65.10
58622;BME280;44389;51.578;5.456;2023-04-06T09:13:46;101487.00;;;7.58;65.41
58622;BME280;44389;51.578;5.456;2023-04-06T09:16:12;101476.31;;;7.67;65.60
58622;BME280;44389;51.578;5.456;2023-04-06T09:18:38;101480.09;;;7.74;65.75
58622;BME280;44389;51.578;5.456;2023-04-06T09:21:05;101483.38;;;7.88;66.26
58622;BME280;44389;51.578;5.456;2023-04-06T09:23:31;101490.41;;;7.92;66.29
58622;BME280;44389;51.578;5.456;2023-04-06T09:26:17;101487.00;;;8.10;67.26
58622;BME280;44389;51.578;5.456;2023-04-06T09:28:50;101490.31;;;8.07;67.59
58622;BME280;44389;51.578;5.456;2023-04-06T09:31:20;101487.91;;;7.94;69.38
58622;BME280;44389;51.578;5.456;2023-04-06T09:33:46;101478.94;;;8.02;69.53
58622;BME280;44389;51.578;5.456;2023-04-06T09:36:15;101487.97;;;8.12;70.06
58622;BME280;44389;51.578;5.456;2023-04-06T09:38:57;101488.03;;;8.13;70.72
58622;BME280;44389;51.578;5.456;2023-04-06T09:41:28;101473.94;;;8.05;72.46
58622;BME280;44389;51.578;5.456;2023-04-06T09:44:06;101482.84;;;7.95;72.61
58622;BME280;44389;51.578;5.456;2023-04-06T09:46:42;101474.75;;;7.87;73.91
58622;BME280;44389;51.578;5.456;2023-04-06T09:49:09;101484.41;;;7.91;78.83
58622;BME280;44389;51.578;5.456;2023-04-06T09:51:45;101477.22;;;8.02;76.67
58622;BME280;44389;51.578;5.456;2023-04-06T09:54:12;101474.66;;;8.02;77.84
58622;BME280;44389;51.578;5.456;2023-04-06T09:56:56;101482.63;;;7.90;75.96
58622;BME280;44389;51.578;5.456;2023-04-06T10:01:55;101479.34;;;7.77;78.98
58622;BME280;44389;51.578;5.456;2023-04-06T10:07:09;101481.28;;;7.64;81.56
58622;BME280;44389;51.578;5.456;2023-04-06T10:09:37;101488.19;;;7.49;82.12
58622;BME280;44389;51.578;5.456;2023-04-06T10:12:06;101490.66;;;7.47;85.12
58622;BME280;44389;51.578;5.456;2023-04-06T10:14:33;101492.50;;;7.33;83.54
58622;BME280;44389;51.578;5.456;2023-04-06T10:17:03;101489.84;;;7.32;86.36
58622;BME280;44389;51.578;5.456;2023-04-06T10:19:58;101490.44;;;7.26;86.52
58622;BME280;44389;51.578;5.456;2023-04-06T10:22:42;101491.16;;;7.23;88.59
58622;BME280;44389;51.578;5.456;2023-04-06T10:25:08;101492.09;;;7.25;87.50
58622;BME280;44389;51.578;5.456;2023-04-06T10:27:34;101487.44;;;7.18;87.88
58622;BME280;44389;51.578;5.456;2023-04-06T10:30:05;101496.72;;;7.16;90.64
58622;BME280;44389;51.578;5.456;2023-04-06T10:32:33;101491.59;;;7.16;91.12
58622;BME280;44389;51.578;5.456;2023-04-06T10:35:11;101487.44;;;7.18;93.07
58622;BME280;44389;51.578;5.456;2023-04-06T10:38:01;101489.38;;;7.22;92.88
58622;BME280;44389;51.578;5.456;2023-04-06T10:40:27;101489.22;;;7.19;92.89
58622;BME280;44389;51.578;5.456;2023-04-06T10:42:53;101495.06;;;7.17;94.55
58622;BME280;44389;51.578;5.456;2023-04-06T10:45:25;101487.13;;;7.12;94.26
58622;BME280;44389;51.578;5.456;2023-04-06T10:47:54;101494.88;;;7.14;95.69
58622;BME280;44389;51.578;5.456;2023-04-06T10:50:21;101484.22;;;7.06;94.95
58622;BME280;44389;51.578;5.456;2023-04-06T10:52:47;101476.13;;;6.98;95.26
58622;BME280;44389;51.578;5.456;2023-04-06T10:55:13;101486.06;;;6.92;97.65
58622;BME280;44389;51.578;5.456;2023-04-06T10:57:40;101485.06;;;6.90;98.63
58622;BME280;44389;51.578;5.456;2023-04-06T11:00:06;101476.41;;;6.88;98.79
58622;BME280;44389;51.578;5.456;2023-04-06T11:02:31;101476.25;;;6.85;99.89
58622;BME280;44389;51.578;5.456;2023-04-06T11:04:58;101474.41;;;6.82;100.00
58622;BME280;44389;51.578;5.456;2023-04-06T11:07:26;101467.34;;;6.78;100.00
58622;BME280;44389;51.578;5.456;2023-04-06T11:09:53;101463.09;;;6.79;100.00
58622;BME280;44389;51.578;5.456;2023-04-06T11:12:26;101455.41;;;6.79;100.00
58622;BME280;44389;51.578;5.456;2023-04-06T11:14:59;101462.31;;;6.80;100.00
58622;BME280;44389;51.578;5.456;2023-04-06T11:17:35;101468.16;;;6.77;100.00
58622;BME280;44389;51.578;5.456;2023-04-06T11:20:01;101457.34;;;6.83;100.00
58622;BME280;44389;51.578;5.456;2023-04-06T11:22:27;101454.97;;;6.86;100.00
58622;BME280;44389;51.578;5.456;2023-04-06T11:24:53;101461.59;;;6.82;100.00
58622;BME280;44389;51.578;5.456;2023-04-06T11:27:29;101448.53;;;6.78;100.00
58622;BME280;44389;51.578;5.456;2023-04-06T11:29:56;101452.44;;;6.71;100.00
58622;BME280;44389;51.578;5.456;2023-04-06T11:32:22;101453.22;;;6.70;100.00
58622;BME280;44389;51.578;5.456;2023-04-06T11:34:48;101452.09;;;6.65;100.00
58622;BME280;44389;51.578;5.456;2023-04-06T11:37:14;101446.00;;;6.63;100.00
58622;BME280;44389;51.578;5.456;2023-04-06T11:39:47;101446.44;;;6.70;100.00
58622;BME280;44389;51.578;5.456;2023-04-06T11:42:24;101443.81;;;6.85;100.00
58622;BME280;44389;51.578;5.456;2023-04-06T11:44:59;101432.97;;;6.89;100.00
58622;BME280;44389;51.578;5.456;2023-04-06T11:47:37;101427.91;;;6.91;100.00
58622;BME280;44389;51.578;5.456;2023-04-06T11:50:12;101425.75;;;6.99;100.00
58622;BME280;44389;51.578;5.456;2023-04-06T11:52:39;101429.38;;;7.02;100.00
58622;BME280;44389;51.578;5.456;2023-04-06T11:55:15;101417.34;;;7.01;100.00
58622;BME280;44389;51.578;5.456;2023-04-06T11:57:41;101420.63;;;7.15;100.00
58622;BME280;44389;51.578;5.456;2023-04-06T12:00:08;101416.63;;;7.37;100.00
58622;BME280;44389;51.578;5.456;2023-04-06T12:02:37;101415.19;;;7.42;100.00
58622;BME280;44389;51.578;5.456;2023-04-06T12:05:04;101413.91;;;7.50;100.00
58622;BME280;44389;51.578;5.456;2023-04-06T12:07:30;101405.56;;;7.54;100.00
58622;BME280;44389;51.578;5.456;2023-04-06T12:09:56;101410.50;;;7.68;100.00
58622;BME280;44389;51.578;5.456;2023-04-06T12:12:21;101398.81;;;7.56;100.00
58622;BME280;44389;51.578;5.456;2023-04-06T12:14:46;101413.00;;;7.50;100.00
58622;BME280;44389;51.578;5.456;2023-04-06T12:17:12;101404.44;;;7.49;100.00
58622;BME280;44389;51.578;5.456;2023-04-06T12:19:37;101403.16;;;7.41;100.00
58622;BME280;44389;51.578;5.456;2023-04-06T12:22:02;101408.78;;;7.34;100.00
58622;BME280;44389;51.578;5.456;2023-04-06T12:24:28;101409.97;;;7.24;100.00
58622;BME280;44389;51.578;5.456;2023-04-06T12:26:54;101399.31;;;7.16;100.00
58622;BME280;44389;51.578;5.456;2023-04-06T12:29:19;101406.06;;;7.14;100.00
58622;BME280;44389;51.578;5.456;2023-04-06T12:31:45;101411.50;;;7.04;100.00
58622;BME280;44389;51.578;5.456;2023-04-06T12:34:10;101396.13;;;7.04;100.00
58622;BME280;44389;51.578;5.456;2023-04-06T12:36:37;101396.13;;;7.04;100.00
58622;BME280;44389;51.578;5.456;2023-04-06T12:39:02;101401.78;;;6.98;100.00
58622;BME280;44389;51.578;5.456;2023-04-06T12:41:29;101404.13;;;6.94;100.00
58622;BME280;44389;51.578;5.456;2023-04-06T12:43:54;101397.88;;;6.88;100.00
58622;BME280;44389;51.578;5.456;2023-04-06T12:46:20;101395.31;;;6.88;100.00
58622;BME280;44389;51.578;5.456;2023-04-06T12:48:46;101386.41;;;6.98;100.00
58622;BME280;44389;51.578;5.456;2023-04-06T12:51:11;101389.94;;;7.00;100.00
58622;BME280;44389;51.578;5.456;2023-04-06T12:53:37;101386.59;;;7.01;100.00
58622;BME280;44389;51.578;5.456;2023-04-06T12:56:11;101382.66;;;7.08;100.00
58622;BME280;44389;51.578;5.456;2023-04-06T12:58:37;101376.81;;;7.11;100.00